sensor_id;sensor_type;location;lat;lon;timestamp;pressure;altitude;pressure_sealevel;temperature;humidity
76794;BME280;65745;50.278;18.192;2023-07-13T00:02:10;99344.95;;;19.58;83.83
76794;BME280;65745;50.278;18.192;2023-07-13T00:04:42;99343.85;;;19.67;83.75
76794;BME280;65745;50.278;18.192;2023-07-13T00:07:15;99343.77;;;19.76;83.47
76794;BME280;65745;50.278;18.192;2023-07-13T00:09:51;99337.23;;;19.79;83.64
76794;BME280;65745;50.278;18.192;2023-07-13T05:28:02;99319.07;;;20.75;84.81
76794;BME280;65745;50.278;18.192;2023-07-13T05:30:35;99303.82;;;21.10;84.77
76794;BME280;65745;50.278;18.192;2023-07-13T05:33:07;99305.89;;;21.22;84.64
76794;BME280;65745;50.278;18.192;2023-07-13T05:35:40;99300.59;;;21.40;83.92
76794;BME280;65745;50.278;18.192;2023-07-13T05:38:12;99300.35;;;21.51;83.47
76794;BME280;65745;50.278;18.192;2023-07-13T05:40:45;99300.50;;;21.52;82.50
76794;BME280;65745;50.278;18.192;2023-07-13T05:43:18;99294.91;;;21.57;82.15
76794;BME280;65745;50.278;18.192;2023-07-13T05:45:51;99286.82;;;21.57;81.44
76794;BME280;65745;50.278;18.192;2023-07-13T05:48:23;99285.39;;;21.58;81.03
76794;BME280;65745;50.278;18.192;2023-07-13T05:50:56;99279.56;;;21.60;80.84
76794;BME280;65745;50.278;18.192;2023-07-13T05:53:28;99275.80;;;21.62;80.08
76794;BME280;65745;50.278;18.192;2023-07-13T05:56:00;99281.44;;;21.66;80.12
76794;BME280;65745;50.278;18.192;2023-07-13T05:58:35;99282.52;;;21.66;80.00
76794;BME280;65745;50.278;18.192;2023-07-13T06:01:11;99289.59;;;21.69;79.49
76794;BME280;65745;50.278;18.192;2023-07-13T06:03:45;99291.61;;;21.71;79.85
76794;BME280;65745;50.278;18.192;2023-07-13T06:06:17;99296.42;;;21.74;79.67
76794;BME280;65745;50.278;18.192;2023-07-13T06:08:50;99304.87;;;21.73;79.04
76794;BME280;65745;50.278;18.192;2023-07-13T06:11:23;99308.69;;;21.74;79.25
76794;BME280;65745;50.278;18.192;2023-07-13T06:13:56;99316.95;;;21.78;79.15
76794;BME280;65745;50.278;18.192;2023-07-13T06:16:28;99326.75;;;21.84;78.60
76794;BME280;65745;50.278;18.192;2023-07-13T06:19:01;99341.73;;;21.87;78.10
76794;BME280;65745;50.278;18.192;2023-07-13T06:21:33;99348.77;;;21.81;78.43
76794;BME280;65745;50.278;18.192;2023-07-13T06:24:06;99362.30;;;21.71;78.66
76794;BME280;65745;50.278;18.192;2023-07-13T06:26:38;99367.57;;;21.59;78.56
76794;BME280;65745;50.278;18.192;2023-07-13T06:29:11;99368.47;;;21.53;78.92
76794;BME280;65745;50.278;18.192;2023-07-13T06:31:43;99367.48;;;21.46;78.97
76794;BME280;65745;50.278;18.192;2023-07-13T06:34:15;99378.25;;;21.38;79.44
76794;BME280;65745;50.278;18.192;2023-07-13T06:36:47;99383.14;;;21.39;79.50
76794;BME280;65745;50.278;18.192;2023-07-13T06:39:20;99384.08;;;21.37;79.82
76794;BME280;65745;50.278;18.192;2023-07-13T06:41:52;99388.80;;;21.37;79.72
76794;BME280;65745;50.278;18.192;2023-07-13T06:44:24;99387.23;;;21.37;80.00
76794;BME280;65745;50.278;18.192;2023-07-13T06:46:56;99387.23;;;21.37;80.03
76794;BME280;65745;50.278;18.192;2023-07-13T06:49:28;99379.14;;;21.38;79.86
76794;BME280;65745;50.278;18.192;2023-07-13T06:52:00;99378.58;;;21.44;79.72
76794;BME280;65745;50.278;18.192;2023-07-13T06:54:32;99371.09;;;21.48;79.58
76794;BME280;65745;50.278;18.192;2023-07-13T06:57:06;99367.84;;;21.50;79.61
76794;BME280;65745;50.278;18.192;2023-07-13T06:59:38;99372.94;;;21.50;79.62
76794;BME280;65745;50.278;18.192;2023-07-13T07:02:12;99381.20;;;21.44;80.11
76794;BME280;65745;50.278;18.192;2023-07-13T07:04:44;99378.88;;;21.40;80.04
76794;BME280;65745;50.278;18.192;2023-07-13T07:07:16;99372.29;;;21.39;80.10
76794;BME280;65745;50.278;18.192;2023-07-13T07:09:48;99373.18;;;21.32;80.13
76794;BME280;65745;50.278;18.192;2023-07-13T07:12:20;99376.18;;;21.32;80.21
76794;BME280;65745;50.278;18.192;2023-07-13T07:14:52;99386.15;;;21.28;80.31
76794;BME280;65745;50.278;18.192;2023-07-13T07:17:24;99387.81;;;21.25;80.69
76794;BME280;65745;50.278;18.192;2023-07-13T07:19:57;99388.38;;;21.24;80.79
76794;BME280;65745;50.278;18.192;2023-07-13T07:22:29;99394.10;;;21.20;81.10
76794;BME280;65745;50.278;18.192;2023-07-13T07:25:01;99399.48;;;21.16;81.06
76794;BME280;65745;50.278;18.192;2023-07-13T07:27:33;99406.09;;;21.10;81.21
76794;BME280;65745;50.278;18.192;2023-07-13T07:30:11;99407.55;;;21.08;81.23
76794;BME280;65745;50.278;18.192;2023-07-13T07:32:47;99405.17;;;21.12;80.76
76794;BME280;65745;50.278;18.192;2023-07-13T07:35:22;99408.00;;;21.18;80.66
76794;BME280;65745;50.278;18.192;2023-07-13T07:37:54;99406.05;;;21.24;80.61
76794;BME280;65745;50.278;18.192;2023-07-13T07:40:28;99408.17;;;21.29;80.55
76794;BME280;65745;50.278;18.192;2023-07-13T07:43:03;99402.52;;;21.36;80.35
76794;BME280;65745;50.278;18.192;2023-07-13T07:45:35;99411.79;;;21.36;80.32
76794;BME280;65745;50.278;18.192;2023-07-13T07:48:09;99418.23;;;21.32;80.22
76794;BME280;65745;50.278;18.192;2023-07-13T07:50:41;99424.41;;;21.36;80.54
76794;BME280;65745;50.278;18.192;2023-07-13T07:53:13;99423.92;;;21.40;80.00
76794;BME280;65745;50.278;18.192;2023-07-13T07:55:45;99425.47;;;21.41;80.11
76794;BME280;65745;50.278;18.192;2023-07-13T07:58:21;99420.16;;;21.48;80.10
76794;BME280;65745;50.278;18.192;2023-07-13T08:01:03;99426.96;;;21.50;79.63
76794;BME280;65745;50.278;18.192;2023-07-13T08:03:39;99433.27;;;21.44;79.80
76794;BME280;65745;50.278;18.192;2023-07-13T08:06:14;99439.39;;;21.39;79.74
76794;BME280;65745;50.278;18.192;2023-07-13T08:09:06;99439.66;;;21.31;79.87
76794;BME280;65745;50.278;18.192;2023-07-13T08:11:39;99444.16;;;21.27;79.94
76794;BME280;65745;50.278;18.192;2023-07-13T08:14:14;99448.12;;;21.24;79.85
76794;BME280;65745;50.278;18.192;2023-07-13T08:16:47;99453.96;;;21.21;79.87
76794;BME280;65745;50.278;18.192;2023-07-13T08:19:19;99457.30;;;21.14;79.65
76794;BME280;65745;50.278;18.192;2023-07-13T08:21:51;99465.69;;;21.09;79.83
76794;BME280;65745;50.278;18.192;2023-07-13T08:24:25;99468.91;;;21.07;79.88
76794;BME280;65745;50.278;18.192;2023-07-13T08:26:57;99477.89;;;21.11;79.49
76794;BME280;65745;50.278;18.192;2023-07-13T08:29:29;99490.48;;;21.05;79.25
76794;BME280;65745;50.278;18.192;2023-07-13T08:32:02;99498.84;;;20.96;78.71
76794;BME280;65745;50.278;18.192;2023-07-13T08:34:35;99507.45;;;20.76;78.13
76794;BME280;65745;50.278;18.192;2023-07-13T08:37:07;99516.74;;;20.49;77.88
76794;BME280;65745;50.278;18.192;2023-07-13T08:39:40;99534.70;;;20.10;77.57
76794;BME280;65745;50.278;18.192;2023-07-13T08:42:18;99543.12;;;19.64;78.14
76794;BME280;65745;50.278;18.192;2023-07-13T08:45:02;99557.52;;;19.20;79.32
76794;BME280;65745;50.278;18.192;2023-07-13T08:47:39;99569.09;;;18.82;80.27
76794;BME280;65745;50.278;18.192;2023-07-13T08:50:17;99582.89;;;18.51;81.06
76794;BME280;65745;50.278;18.192;2023-07-13T08:52:50;99599.37;;;18.34;81.51
76794;BME280;65745;50.278;18.192;2023-07-13T08:55:26;99597.94;;;18.16;82.09
76794;BME280;65745;50.278;18.192;2023-07-13T08:58:05;99585.58;;;17.92;83.20
76794;BME280;65745;50.278;18.192;2023-07-13T09:00:48;99576.05;;;17.76;83.56
76794;BME280;65745;50.278;18.192;2023-07-13T09:03:25;99570.88;;;17.59;84.59
76794;BME280;65745;50.278;18.192;2023-07-13T09:06:04;99558.25;;;17.52;84.68
76794;BME280;65745;50.278;18.192;2023-07-13T09:08:52;99547.94;;;17.41;84.77
76794;BME280;65745;50.278;18.192;2023-07-13T09:11:36;99537.02;;;17.39;84.92
76794;BME280;65745;50.278;18.192;2023-07-13T09:14:31;99537.74;;;17.35;85.04
76794;BME280;65745;50.278;18.192;2023-07-13T09:17:05;99553.77;;;17.35;85.12
76794;BME280;65745;50.278;18.192;2023-07-13T09:19:42;99562.98;;;17.36;85.50
76794;BME280;65745;50.278;18.192;2023-07-13T09:22:19;99569.23;;;17.37;85.72
76794;BME280;65745;50.278;18.192;2023-07-13T09:25:00;99566.09;;;17.37;85.55
76794;BME280;65745;50.278;18.192;2023-07-13T09:27:37;99565.70;;;17.41;85.91
76794;BME280;65745;50.278;18.192;2023-07-13T09:30:23;99565.33;;;17.43;85.45
76794;BME280;65745;50.278;18.192;2023-07-13T09:32:56;99563.16;;;17.50;85.62
76794;BME280;65745;50.278;18.192;2023-07-13T09:35:30;99554.20;;;17.54;85.17
76794;BME280;65745;50.278;18.192;2023-07-13T09:38:13;99551.04;;;17.57;85.27
76794;BME280;65745;50.278;18.192;2023-07-13T09:40:58;99560.13;;;17.55;85.16
76794;BME280;65745;50.278;18.192;2023-07-13T09:43:31;99554.88;;;17.56;85.39
76794;BME280;65745;50.278;18.192;2023-07-13T09:46:04;99546.80;;;17.62;84.97
76794;BME280;65745;50.278;18.192;2023-07-13T09:48:37;99537.67;;;17.68;84.70
76794;BME280;65745;50.278;18.192;2023-07-13T09:51:14;99534.81;;;17.72;84.96
76794;BME280;65745;50.278;18.192;2023-07-13T09:53:47;99535.13;;;17.74;84.92
76794;BME280;65745;50.278;18.192;2023-07-13T09:56:25;99535.58;;;17.80;84.75
76794;BME280;65745;50.278;18.192;2023-07-13T09:58:58;99538.05;;;17.89;84.84
76794;BME280;65745;50.278;18.192;2023-07-13T10:01:37;99537.04;;;17.97;84.70
76794;BME280;65745;50.278;18.192;2023-07-13T10:04:16;99536.45;;;18.12;84.58
76794;BME280;65745;50.278;18.192;2023-07-13T10:06:49;99532.54;;;18.27;84.71
76794;BME280;65745;50.278;18.192;2023-07-13T10:09:57;99533.59;;;18.46;84.45
76794;BME280;65745;50.278;18.192;2023-07-13T10:12:37;99533.84;;;18.51;84.26
76794;BME280;65745;50.278;18.192;2023-07-13T10:15:17;99538.07;;;18.60;84.36
76794;BME280;65745;50.278;18.192;2023-07-13T10:17:55;99536.20;;;18.67;84.27
76794;BME280;65745;50.278;18.192;2023-07-13T10:20:29;99532.75;;;18.75;84.28
76794;BME280;65745;50.278;18.192;2023-07-13T10:23:04;99533.57;;;18.86;84.20
76794;BME280;65745;50.278;18.192;2023-07-13T10:25:39;99538.48;;;19.02;84.27
76794;BME280;65745;50.278;18.192;2023-07-13T10:28:29;99541.58;;;19.13;83.79
76794;BME280;65745;50.278;18.192;2023-07-13T10:31:02;99547.44;;;19.25;83.53
76794;BME280;65745;50.278;18.192;2023-07-13T10:33:37;99559.56;;;19.38;83.18
76794;BME280;65745;50.278;18.192;2023-07-13T10:36:16;99564.27;;;19.48;82.91
76794;BME280;65745;50.278;18.192;2023-07-13T10:38:51;99565.20;;;19.62;82.49
76794;BME280;65745;50.278;18.192;2023-07-13T10:41:26;99571.11;;;19.71;82.15
76794;BME280;65745;50.278;18.192;2023-07-13T10:43:59;99571.53;;;19.75;81.95
76794;BME280;65745;50.278;18.192;2023-07-13T10:46:34;99574.52;;;19.90;81.75
76794;BME280;65745;50.278;18.192;2023-07-13T10:49:09;99581.13;;;20.07;81.43
76794;BME280;65745;50.278;18.192;2023-07-13T10:51:43;99584.77;;;20.15;81.16
76794;BME280;65745;50.278;18.192;2023-07-13T10:54:22;99588.35;;;20.25;80.83
76794;BME280;65745;50.278;18.192;2023-07-13T10:57:17;99588.68;;;20.19;80.70
76794;BME280;65745;50.278;18.192;2023-07-13T11:00:15;99592.20;;;20.19;81.25
76794;BME280;65745;50.278;18.192;2023-07-13T11:02:58;99598.64;;;20.35;80.84
76794;BME280;65745;50.278;18.192;2023-07-13T11:05:33;99594.56;;;20.44;81.02
76794;BME280;65745;50.278;18.192;2023-07-13T11:08:16;99595.45;;;20.64;80.65
76794;BME280;65745;50.278;18.192;2023-07-13T11:10:53;99599.15;;;20.90;80.24
76794;BME280;65745;50.278;18.192;2023-07-13T11:13:55;99603.71;;;20.90;79.06
76794;BME280;65745;50.278;18.192;2023-07-13T11:16:46;99606.41;;;20.81;79.84
76794;BME280;65745;50.278;18.192;2023-07-13T11:19:44;99607.38;;;20.70;79.08
76794;BME280;65745;50.278;18.192;2023-07-13T11:22:37;99609.02;;;20.60;79.01
76794;BME280;65745;50.278;18.192;2023-07-13T11:25:30;99604.80;;;20.55;79.31
76794;BME280;65745;50.278;18.192;2023-07-13T11:28:17;99607.07;;;20.41;79.29
76794;BME280;65745;50.278;18.192;2023-07-13T11:31:03;99614.55;;;20.27;79.49
76794;BME280;65745;50.278;18.192;2023-07-13T11:33:57;99625.35;;;20.14;79.53
76794;BME280;65745;50.278;18.192;2023-07-13T11:36:42;99624.29;;;20.08;79.56
76794;BME280;65745;50.278;18.192;2023-07-13T11:39:31;99619.59;;;20.06;80.24
76794;BME280;65745;50.278;18.192;2023-07-13T11:42:08;99615.27;;;20.11;79.87
76794;BME280;65745;50.278;18.192;2023-07-13T11:44:46;99615.55;;;20.15;79.70
76794;BME280;65745;50.278;18.192;2023-07-13T11:47:33;99614.35;;;20.14;79.71
76794;BME280;65745;50.278;18.192;2023-07-13T11:50:16;99618.35;;;20.07;79.03
76794;BME280;65745;50.278;18.192;2023-07-13T11:52:51;99625.17;;;20.07;79.30
76794;BME280;65745;50.278;18.192;2023-07-13T11:55:26;99636.38;;;19.91;79.60
76794;BME280;65745;50.278;18.192;2023-07-13T11:58:01;99638.95;;;19.78;79.54
76794;BME280;65745;50.278;18.192;2023-07-13T12:00:35;99641.73;;;19.62;79.90
76794;BME280;65745;50.278;18.192;2023-07-13T12:03:10;99643.25;;;19.57;80.03
76794;BME280;65745;50.278;18.192;2023-07-13T12:05:58;99637.69;;;19.55;80.06
76794;BME280;65745;50.278;18.192;2023-07-13T12:08:32;99631.96;;;19.61;80.21
76794;BME280;65745;50.278;18.192;2023-07-13T12:11:16;99629.68;;;19.70;80.23
76794;BME280;65745;50.278;18.192;2023-07-13T12:13:49;99631.22;;;19.87;80.08
76794;BME280;65745;50.278;18.192;2023-07-13T12:16:28;99631.66;;;20.06;79.85
76794;BME280;65745;50.278;18.192;2023-07-13T12:19:02;99625.92;;;20.27;79.78
76794;BME280;65745;50.278;18.192;2023-07-13T12:21:36;99624.25;;;20.60;79.47
76794;BME280;65745;50.278;18.192;2023-07-13T12:24:15;99620.39;;;21.08;79.30
76794;BME280;65745;50.278;18.192;2023-07-13T12:26:52;99622.48;;;21.58;78.36
76794;BME280;65745;50.278;18.192;2023-07-13T12:29:24;99621.14;;;22.03;77.74
76794;BME280;65745;50.278;18.192;2023-07-13T12:31:56;99623.33;;;22.17;77.28
76794;BME280;65745;50.278;18.192;2023-07-13T12:34:29;99616.54;;;22.32;76.84
76794;BME280;65745;50.278;18.192;2023-07-13T12:37:02;99615.96;;;22.49;76.15
76794;BME280;65745;50.278;18.192;2023-07-13T12:39:38;99610.12;;;22.67;75.69
76794;BME280;65745;50.278;18.192;2023-07-13T12:42:21;99604.86;;;22.82;74.50
76794;BME280;65745;50.278;18.192;2023-07-13T12:44:58;99609.76;;;22.78;74.92
76794;BME280;65745;50.278;18.192;2023-07-13T12:47:41;99610.92;;;22.75;73.72
76794;BME280;65745;50.278;18.192;2023-07-13T12:50:15;99614.02;;;22.60;74.44
76794;BME280;65745;50.278;18.192;2023-07-13T12:52:52;99621.74;;;22.44;74.09
76794;BME280;65745;50.278;18.192;2023-07-13T12:55:25;99611.21;;;22.28;73.32
76794;BME280;65745;50.278;18.192;2023-07-13T12:57:59;99610.34;;;22.12;74.07
76794;BME280;65745;50.278;18.192;2023-07-13T13:00:33;99609.30;;;22.00;74.63
76794;BME280;65745;50.278;18.192;2023-07-13T13:03:16;99606.92;;;21.98;74.64
76794;BME280;65745;50.278;18.192;2023-07-13T13:06:02;99608.35;;;21.91;74.63
76794;BME280;65745;50.278;18.192;2023-07-13T13:08:36;99615.59;;;21.83;74.59
76794;BME280;65745;50.278;18.192;2023-07-13T13:11:14;99622.33;;;21.81;75.27
76794;BME280;65745;50.278;18.192;2023-07-13T13:13:47;99625.67;;;22.03;74.73
76794;BME280;65745;50.278;18.192;2023-07-13T13:16:22;99626.17;;;22.32;74.08
76794;BME280;65745;50.278;18.192;2023-07-13T13:18:56;99621.26;;;22.59;73.98
76794;BME280;65745;50.278;18.192;2023-07-13T13:21:29;99621.61;;;22.80;73.82
76794;BME280;65745;50.278;18.192;2023-07-13T13:24:01;99620.11;;;22.93;73.99
76794;BME280;65745;50.278;18.192;2023-07-13T13:26:33;99624.73;;;23.11;73.26
76794;BME280;65745;50.278;18.192;2023-07-13T13:29:13;99622.98;;;23.35;72.36
76794;BME280;65745;50.278;18.192;2023-07-13T13:31:47;99624.56;;;23.55;72.45
76794;BME280;65745;50.278;18.192;2023-07-13T13:34:20;99625.09;;;24.05;70.64
76794;BME280;65745;50.278;18.192;2023-07-13T13:36:54;99626.32;;;24.27;70.30
76794;BME280;65745;50.278;18.192;2023-07-13T13:39:33;99620.35;;;24.82;68.07
76794;BME280;65745;50.278;18.192;2023-07-13T13:42:08;99618.61;;;25.22;66.29
76794;BME280;65745;50.278;18.192;2023-07-13T13:44:41;99613.72;;;25.41;66.14
76794;BME280;65745;50.278;18.192;2023-07-13T13:47:28;99608.98;;;25.33;65.43
76794;BME280;65745;50.278;18.192;2023-07-13T13:50:01;99603.73;;;25.43;65.64
76794;BME280;65745;50.278;18.192;2023-07-13T13:52:36;99605.33;;;26.04;63.84
76794;BME280;65745;50.278;18.192;2023-07-13T13:55:15;99596.68;;;26.61;62.47
76794;BME280;65745;50.278;18.192;2023-07-13T13:57:49;99597.80;;;26.88;60.75
76794;BME280;65745;50.278;18.192;2023-07-13T14:00:22;99600.95;;;26.32;60.24
76794;BME280;65745;50.278;18.192;2023-07-13T14:02:55;99604.22;;;26.05;61.60
76794;BME280;65745;50.278;18.192;2023-07-13T14:05:28;99601.55;;;25.98;61.40
76794;BME280;65745;50.278;18.192;2023-07-13T14:08:01;99604.67;;;26.46;61.11
76794;BME280;65745;50.278;18.192;2023-07-13T14:10:33;99594.27;;;27.01;59.72
76794;BME280;65745;50.278;18.192;2023-07-13T14:13:07;99596.65;;;27.36;59.56
76794;BME280;65745;50.278;18.192;2023-07-13T14:15:47;99587.08;;;27.98;58.48
76794;BME280;65745;50.278;18.192;2023-07-13T14:18:19;99591.52;;;28.44;54.93
76794;BME280;65745;50.278;18.192;2023-07-13T14:20:51;99587.55;;;28.96;53.81
76794;BME280;65745;50.278;18.192;2023-07-13T14:23:24;99585.07;;;29.47;52.70
76794;BME280;65745;50.278;18.192;2023-07-13T14:25:56;99584.33;;;29.45;51.60
76794;BME280;65745;50.278;18.192;2023-07-13T14:28:28;99577.27;;;29.31;51.99
76794;BME280;65745;50.278;18.192;2023-07-13T14:31:00;99568.44;;;29.66;51.53
76794;BME280;65745;50.278;18.192;2023-07-13T14:33:32;99560.73;;;30.01;50.79
76794;BME280;65745;50.278;18.192;2023-07-13T14:36:09;99555.95;;;30.24;49.78
76794;BME280;65745;50.278;18.192;2023-07-13T14:38:50;99562.38;;;30.35;47.83
76794;BME280;65745;50.278;18.192;2023-07-13T14:41:22;99564.45;;;30.25;48.01
76794;BME280;65745;50.278;18.192;2023-07-13T14:43:54;99557.05;;;30.59;48.03
76794;BME280;65745;50.278;18.192;2023-07-13T14:46:29;99555.91;;;30.54;47.24
76794;BME280;65745;50.278;18.192;2023-07-13T14:49:04;99556.37;;;30.16;47.55
76794;BME280;65745;50.278;18.192;2023-07-13T14:51:37;99553.69;;;30.53;46.66
76794;BME280;65745;50.278;18.192;2023-07-13T14:54:11;99559.57;;;30.87;46.09
76794;BME280;65745;50.278;18.192;2023-07-13T14:56:43;99562.25;;;31.19;44.66
76794;BME280;65745;50.278;18.192;2023-07-13T14:59:15;99561.18;;;31.34;45.94
76794;BME280;65745;50.278;18.192;2023-07-13T15:01:50;99569.89;;;31.65;44.53
76794;BME280;65745;50.278;18.192;2023-07-13T15:04:22;99573.42;;;31.78;42.62
76794;BME280;65745;50.278;18.192;2023-07-13T15:06:58;99570.10;;;31.57;42.38
76794;BME280;65745;50.278;18.192;2023-07-13T15:09:32;99574.55;;;31.11;43.74
76794;BME280;65745;50.278;18.192;2023-07-13T15:12:06;99575.42;;;31.09;44.11
76794;BME280;65745;50.278;18.192;2023-07-13T15:14:38;99566.22;;;31.14;43.06
76794;BME280;65745;50.278;18.192;2023-07-13T15:17:28;99560.27;;;30.97;42.68
76794;BME280;65745;50.278;18.192;2023-07-13T15:20:04;99563.48;;;30.37;43.58
76794;BME280;65745;50.278;18.192;2023-07-13T15:22:38;99565.98;;;29.74;44.66
76794;BME280;65745;50.278;18.192;2023-07-13T15:25:19;99562.25;;;29.26;45.77
76794;BME280;65745;50.278;18.192;2023-07-13T15:27:52;99553.73;;;28.89;46.68
76794;BME280;65745;50.278;18.192;2023-07-13T15:30:27;99549.73;;;28.67;46.72
76794;BME280;65745;50.278;18.192;2023-07-13T15:33:05;99547.05;;;28.26;46.99
76794;BME280;65745;50.278;18.192;2023-07-13T15:35:41;99550.50;;;28.03;47.37
76794;BME280;65745;50.278;18.192;2023-07-13T15:38:19;99548.82;;;27.79;49.15
76794;BME280;65745;50.278;18.192;2023-07-13T15:40:52;99546.95;;;27.68;48.74
76794;BME280;65745;50.278;18.192;2023-07-13T15:43:25;99550.64;;;27.53;49.80
76794;BME280;65745;50.278;18.192;2023-07-13T15:45:57;99555.70;;;27.31;49.53
76794;BME280;65745;50.278;18.192;2023-07-13T15:48:29;99557.17;;;26.87;49.68
76794;BME280;65745;50.278;18.192;2023-07-13T15:51:04;99560.58;;;26.66;51.22
76794;BME280;65745;50.278;18.192;2023-07-13T15:53:39;99561.88;;;26.50;51.85
76794;BME280;65745;50.278;18.192;2023-07-13T15:56:19;99554.91;;;26.69;52.03
76794;BME280;65745;50.278;18.192;2023-07-13T15:58:53;99555.55;;;27.01;51.83
76794;BME280;65745;50.278;18.192;2023-07-13T16:01:27;99555.02;;;27.21;51.25
76794;BME280;65745;50.278;18.192;2023-07-13T16:04:00;99549.50;;;27.28;51.28
76794;BME280;65745;50.278;18.192;2023-07-13T16:06:35;99555.39;;;27.30;49.95
76794;BME280;65745;50.278;18.192;2023-07-13T16:09:19;99558.81;;;27.13;49.35
76794;BME280;65745;50.278;18.192;2023-07-13T16:11:53;99558.64;;;26.93;49.59
76794;BME280;65745;50.278;18.192;2023-07-13T16:14:28;99553.50;;;26.76;49.82
76794;BME280;65745;50.278;18.192;2023-07-13T16:17:00;99564.56;;;26.60;49.53
76794;BME280;65745;50.278;18.192;2023-07-13T16:19:32;99570.77;;;26.46;49.62
76794;BME280;65745;50.278;18.192;2023-07-13T16:22:05;99570.64;;;26.31;50.41
76794;BME280;65745;50.278;18.192;2023-07-13T16:24:37;99572.12;;;26.22;51.30
76794;BME280;65745;50.278;18.192;2023-07-13T16:27:10;99571.87;;;26.09;50.66
76794;BME280;65745;50.278;18.192;2023-07-13T16:29:43;99573.71;;;25.93;50.78
76794;BME280;65745;50.278;18.192;2023-07-13T16:32:16;99578.55;;;25.73;50.59
76794;BME280;65745;50.278;18.192;2023-07-13T16:34:48;99580.42;;;25.52;50.59
76794;BME280;65745;50.278;18.192;2023-07-13T16:37:22;99588.33;;;25.33;50.76
76794;BME280;65745;50.278;18.192;2023-07-13T16:39:59;99591.48;;;25.18;50.11
76794;BME280;65745;50.278;18.192;2023-07-13T16:42:31;99592.27;;;25.00;50.79
76794;BME280;65745;50.278;18.192;2023-07-13T16:45:08;99592.91;;;24.81;51.24
76794;BME280;65745;50.278;18.192;2023-07-13T16:47:43;99594.02;;;24.72;52.54
76794;BME280;65745;50.278;18.192;2023-07-13T16:50:19;99602.23;;;24.61;52.07
76794;BME280;65745;50.278;18.192;2023-07-13T16:52:53;99595.39;;;24.48;52.38
76794;BME280;65745;50.278;18.192;2023-07-13T16:55:27;99595.98;;;24.38;54.06
76794;BME280;65745;50.278;18.192;2023-07-13T16:58:00;99595.64;;;24.29;53.98
76794;BME280;65745;50.278;18.192;2023-07-13T17:00:34;99601.08;;;24.21;54.27
76794;BME280;65745;50.278;18.192;2023-07-13T17:03:08;99599.00;;;24.15;54.14
76794;BME280;65745;50.278;18.192;2023-07-13T17:05:45;99596.42;;;24.09;53.34
76794;BME280;65745;50.278;18.192;2023-07-13T17:08:21;99597.15;;;24.04;53.23
76794;BME280;65745;50.278;18.192;2023-07-13T17:10:56;99602.03;;;23.96;52.89
76794;BME280;65745;50.278;18.192;2023-07-13T17:13:30;99600.86;;;23.86;53.05
76794;BME280;65745;50.278;18.192;2023-07-13T17:16:02;99600.31;;;23.78;52.82
76794;BME280;65745;50.278;18.192;2023-07-13T17:18:35;99603.14;;;23.68;54.28
76794;BME280;65745;50.278;18.192;2023-07-13T17:21:13;99602.23;;;23.59;55.03
76794;BME280;65745;50.278;18.192;2023-07-13T17:23:45;99599.69;;;23.48;53.98
76794;BME280;65745;50.278;18.192;2023-07-13T17:26:17;99600.65;;;23.45;53.63
76794;BME280;65745;50.278;18.192;2023-07-13T17:28:50;99602.98;;;23.39;54.23
76794;BME280;65745;50.278;18.192;2023-07-13T17:31:23;99599.18;;;23.33;54.36
76794;BME280;65745;50.278;18.192;2023-07-13T17:33:55;99599.46;;;23.30;54.64
76794;BME280;65745;50.278;18.192;2023-07-13T17:36:27;99596.42;;;23.26;54.04
76794;BME280;65745;50.278;18.192;2023-07-13T17:39:00;99588.59;;;23.19;54.15
76794;BME280;65745;50.278;18.192;2023-07-13T17:41:34;99586.14;;;23.14;54.32
76794;BME280;65745;50.278;18.192;2023-07-13T17:44:07;99591.61;;;23.09;55.08
76794;BME280;65745;50.278;18.192;2023-07-13T17:46:40;99602.73;;;23.03;56.46
76794;BME280;65745;50.278;18.192;2023-07-13T17:49:19;99610.24;;;22.89;59.29
76794;BME280;65745;50.278;18.192;2023-07-13T17:51:56;99612.80;;;22.81;59.26
76794;BME280;65745;50.278;18.192;2023-07-13T17:54:29;99609.72;;;22.74;60.76
76794;BME280;65745;50.278;18.192;2023-07-13T17:57:01;99608.35;;;22.67;60.52
76794;BME280;65745;50.278;18.192;2023-07-13T17:59:33;99610.70;;;22.64;60.49
76794;BME280;65745;50.278;18.192;2023-07-13T18:02:12;99616.06;;;22.62;59.93
76794;BME280;65745;50.278;18.192;2023-07-13T18:04:48;99621.80;;;22.58;60.37
76794;BME280;65745;50.278;18.192;2023-07-13T18:07:20;99629.83;;;22.60;60.28
76794;BME280;65745;50.278;18.192;2023-07-13T18:09:58;99634.54;;;22.55;60.60
76794;BME280;65745;50.278;18.192;2023-07-13T18:12:30;99635.63;;;22.50;60.85
76794;BME280;65745;50.278;18.192;2023-07-13T18:15:07;99636.73;;;22.47;61.62
76794;BME280;65745;50.278;18.192;2023-07-13T18:17:39;99645.28;;;22.44;61.62
76794;BME280;65745;50.278;18.192;2023-07-13T18:20:16;99645.32;;;22.37;62.08
76794;BME280;65745;50.278;18.192;2023-07-13T18:22:49;99651.66;;;22.31;62.54
76794;BME280;65745;50.278;18.192;2023-07-13T18:25:23;99649.87;;;22.27;62.85
76794;BME280;65745;50.278;18.192;2023-07-13T18:27:56;99654.58;;;22.17;63.62
76794;BME280;65745;50.278;18.192;2023-07-13T18:30:28;99655.23;;;22.07;63.94
76794;BME280;65745;50.278;18.192;2023-07-13T18:33:00;99652.41;;;21.96;65.08
76794;BME280;65745;50.278;18.192;2023-07-13T18:35:34;99651.99;;;21.86;64.84
76794;BME280;65745;50.278;18.192;2023-07-13T18:38:17;99652.77;;;21.77;64.72
76794;BME280;65745;50.278;18.192;2023-07-13T18:40:49;99651.84;;;21.73;64.83
76794;BME280;65745;50.278;18.192;2023-07-13T18:43:22;99653.86;;;21.64;65.63
76794;BME280;65745;50.278;18.192;2023-07-13T18:45:58;99654.37;;;21.53;64.96
76794;BME280;65745;50.278;18.192;2023-07-13T18:48:32;99653.52;;;21.40;66.73
76794;BME280;65745;50.278;18.192;2023-07-13T18:51:05;99655.13;;;21.26;68.14